sensor_id;sensor_type;location;lat;lon;timestamp;P1;durP1;ratioP1;P2;durP2;ratioP2
60314;SDS011;46159;42.550;21.904;2023-06-22T00:01:52;17.83;;;15.98;;
60314;SDS011;46159;42.550;21.904;2023-06-22T00:04:18;17.55;;;15.75;;
60314;SDS011;46159;42.550;21.904;2023-06-22T00:06:45;17.75;;;14.82;;
60314;SDS011;46159;42.550;21.904;2023-06-22T00:09:11;15.35;;;13.73;;
60314;SDS011;46159;42.550;21.904;2023-06-22T00:11:37;14.85;;;13.23;;
60314;SDS011;46159;42.550;21.904;2023-06-22T00:14:04;16.17;;;12.80;;
60314;SDS011;46159;42.550;21.904;2023-06-22T00:16:33;16.95;;;13.90;;
60314;SDS011;46159;42.550;21.904;2023-06-22T00:18:59;16.58;;;14.48;;
60314;SDS011;46159;42.550;21.904;2023-06-22T00:21:27;15.45;;;13.65;;
60314;SDS011;46159;42.550;21.904;2023-06-22T00:23:54;16.75;;;14.85;;
60314;SDS011;46159;42.550;21.904;2023-06-22T00:26:21;19.38;;;15.13;;
60314;SDS011;46159;42.550;21.904;2023-06-22T00:28:47;17.00;;;15.20;;
60314;SDS011;46159;42.550;21.904;2023-06-22T00:31:13;17.05;;;15.35;;
60314;SDS011;46159;42.550;21.904;2023-06-22T00:33:39;17.85;;;15.68;;
60314;SDS011;46159;42.550;21.904;2023-06-22T00:36:05;16.70;;;14.98;;
60314;SDS011;46159;42.550;21.904;2023-06-22T00:38:33;16.52;;;14.93;;
60314;SDS011;46159;42.550;21.904;2023-06-22T00:40:59;18.65;;;15.23;;
60314;SDS011;46159;42.550;21.904;2023-06-22T00:43:25;18.33;;;14.68;;
60314;SDS011;46159;42.550;21.904;2023-06-22T00:45:51;17.35;;;14.82;;
60314;SDS011;46159;42.550;21.904;2023-06-22T00:48:17;18.17;;;16.25;;
60314;SDS011;46159;42.550;21.904;2023-06-22T00:50:43;17.73;;;15.82;;
60314;SDS011;46159;42.550;21.904;2023-06-22T00:53:09;18.48;;;16.52;;
60314;SDS011;46159;42.550;21.904;2023-06-22T00:55:37;16.17;;;14.57;;
60314;SDS011;46159;42.550;21.904;2023-06-22T00:58:06;17.27;;;15.55;;
60314;SDS011;46159;42.550;21.904;2023-06-22T01:00:36;17.60;;;15.80;;
60314;SDS011;46159;42.550;21.904;2023-06-22T01:03:03;17.58;;;15.75;;
60314;SDS011;46159;42.550;21.904;2023-06-22T01:05:34;18.70;;;15.52;;
60314;SDS011;46159;42.550;21.904;2023-06-22T01:13:57;17.70;;;15.77;;
60314;SDS011;46159;42.550;21.904;2023-06-22T01:18:51;17.85;;;16.00;;
60314;SDS011;46159;42.550;21.904;2023-06-22T01:21:18;17.95;;;15.63;;
60314;SDS011;46159;42.550;21.904;2023-06-22T01:26:18;17.85;;;16.05;;
60314;SDS011;46159;42.550;21.904;2023-06-22T01:28:50;17.35;;;15.55;;
60314;SDS011;46159;42.550;21.904;2023-06-22T01:31:17;17.17;;;15.02;;
60314;SDS011;46159;42.550;21.904;2023-06-22T01:33:44;17.90;;;16.10;;
60314;SDS011;46159;42.550;21.904;2023-06-22T01:36:11;20.30;;;17.00;;
60314;SDS011;46159;42.550;21.904;2023-06-22T01:38:38;19.83;;;16.45;;
60314;SDS011;46159;42.550;21.904;2023-06-22T01:41:05;17.73;;;15.85;;
60314;SDS011;46159;42.550;21.904;2023-06-22T01:43:31;18.98;;;16.15;;
60314;SDS011;46159;42.550;21.904;2023-06-22T01:46:00;18.73;;;16.73;;
60314;SDS011;46159;42.550;21.904;2023-06-22T01:48:27;19.75;;;17.27;;
60314;SDS011;46159;42.550;21.904;2023-06-22T01:50:54;17.42;;;15.68;;
60314;SDS011;46159;42.550;21.904;2023-06-22T01:53:24;19.08;;;16.05;;
60314;SDS011;46159;42.550;21.904;2023-06-22T01:55:50;17.20;;;15.43;;
60314;SDS011;46159;42.550;21.904;2023-06-22T01:58:16;17.75;;;15.88;;
60314;SDS011;46159;42.550;21.904;2023-06-22T02:00:51;18.17;;;14.68;;
60314;SDS011;46159;42.550;21.904;2023-06-22T02:03:19;20.20;;;15.20;;
60314;SDS011;46159;42.550;21.904;2023-06-22T02:05:52;23.15;;;15.90;;
60314;SDS011;46159;42.550;21.904;2023-06-22T02:08:41;19.23;;;15.80;;
60314;SDS011;46159;42.550;21.904;2023-06-22T02:11:05;17.75;;;15.75;;
60314;SDS011;46159;42.550;21.904;2023-06-22T02:13:32;19.88;;;15.40;;
60314;SDS011;46159;42.550;21.904;2023-06-22T02:15:58;18.13;;;16.23;;
60314;SDS011;46159;42.550;21.904;2023-06-22T02:18:25;22.05;;;16.77;;
60314;SDS011;46159;42.550;21.904;2023-06-22T02:20:51;18.95;;;17.00;;
60314;SDS011;46159;42.550;21.904;2023-06-22T02:23:17;19.02;;;17.13;;
60314;SDS011;46159;42.550;21.904;2023-06-22T02:25:43;19.35;;;17.35;;
60314;SDS011;46159;42.550;21.904;2023-06-22T02:28:10;18.42;;;16.50;;
60314;SDS011;46159;42.550;21.904;2023-06-22T02:30:36;19.20;;;17.17;;
60314;SDS011;46159;42.550;21.904;2023-06-22T02:33:02;18.67;;;16.67;;
60314;SDS011;46159;42.550;21.904;2023-06-22T02:35:28;21.00;;;16.73;;
60314;SDS011;46159;42.550;21.904;2023-06-22T02:38:00;20.02;;;17.45;;
60314;SDS011;46159;42.550;21.904;2023-06-22T02:40:27;19.77;;;17.55;;
60314;SDS011;46159;42.550;21.904;2023-06-22T02:42:53;19.83;;;17.67;;
60314;SDS011;46159;42.550;21.904;2023-06-22T02:45:19;18.73;;;16.73;;
60314;SDS011;46159;42.550;21.904;2023-06-22T02:47:45;19.90;;;16.73;;
60314;SDS011;46159;42.550;21.904;2023-06-22T02:50:13;23.00;;;17.70;;
60314;SDS011;46159;42.550;21.904;2023-06-22T02:52:39;19.35;;;17.15;;
60314;SDS011;46159;42.550;21.904;2023-06-22T02:55:05;18.23;;;16.42;;
60314;SDS011;46159;42.550;21.904;2023-06-22T02:57:33;19.00;;;17.00;;
60314;SDS011;46159;42.550;21.904;2023-06-22T02:59:59;20.17;;;16.95;;
60314;SDS011;46159;42.550;21.904;2023-06-22T03:02:25;22.10;;;17.25;;
60314;SDS011;46159;42.550;21.904;2023-06-22T03:04:52;20.25;;;17.05;;
60314;SDS011;46159;42.550;21.904;2023-06-22T03:07:19;19.10;;;17.10;;
60314;SDS011;46159;42.550;21.904;2023-06-22T03:09:45;21.63;;;19.38;;
60314;SDS011;46159;42.550;21.904;2023-06-22T03:12:11;21.67;;;19.40;;
60314;SDS011;46159;42.550;21.904;2023-06-22T03:14:37;21.65;;;17.15;;
60314;SDS011;46159;42.550;21.904;2023-06-22T03:17:04;19.67;;;16.55;;
60314;SDS011;46159;42.550;21.904;2023-06-22T03:19:31;19.50;;;16.05;;
60314;SDS011;46159;42.550;21.904;2023-06-22T03:21:57;18.30;;;16.40;;
60314;SDS011;46159;42.550;21.904;2023-06-22T03:24:23;20.17;;;17.40;;
60314;SDS011;46159;42.550;21.904;2023-06-22T03:26:49;20.50;;;17.55;;
60314;SDS011;46159;42.550;21.904;2023-06-22T03:29:15;20.70;;;16.65;;
60314;SDS011;46159;42.550;21.904;2023-06-22T03:31:41;21.23;;;16.40;;
60314;SDS011;46159;42.550;21.904;2023-06-22T03:34:08;19.08;;;16.75;;
60314;SDS011;46159;42.550;21.904;2023-06-22T03:36:34;20.15;;;16.73;;
60314;SDS011;46159;42.550;21.904;2023-06-22T03:39:00;20.45;;;16.10;;
60314;SDS011;46159;42.550;21.904;2023-06-22T03:41:26;16.48;;;14.63;;
60314;SDS011;46159;42.550;21.904;2023-06-22T03:43:52;19.45;;;15.90;;
60314;SDS011;46159;42.550;21.904;2023-06-22T03:46:18;21.65;;;14.23;;
60314;SDS011;46159;42.550;21.904;2023-06-22T03:48:45;19.30;;;14.23;;
60314;SDS011;46159;42.550;21.904;2023-06-22T03:51:11;20.75;;;13.75;;
60314;SDS011;46159;42.550;21.904;2023-06-22T03:53:37;17.30;;;13.30;;
60314;SDS011;46159;42.550;21.904;2023-06-22T03:56:03;16.05;;;13.10;;
60314;SDS011;46159;42.550;21.904;2023-06-22T03:58:29;16.35;;;12.38;;
60314;SDS011;46159;42.550;21.904;2023-06-22T04:00:57;15.45;;;11.52;;
60314;SDS011;46159;42.550;21.904;2023-06-22T04:03:25;13.40;;;12.00;;
60314;SDS011;46159;42.550;21.904;2023-06-22T04:05:51;16.42;;;11.85;;
60314;SDS011;46159;42.550;21.904;2023-06-22T04:08:18;13.02;;;10.80;;
60314;SDS011;46159;42.550;21.904;2023-06-22T04:10:44;13.10;;;10.93;;
60314;SDS011;46159;42.550;21.904;2023-06-22T04:13:10;15.68;;;11.82;;
60314;SDS011;46159;42.550;21.904;2023-06-22T04:15:36;13.57;;;10.57;;
60314;SDS011;46159;42.550;21.904;2023-06-22T04:18:02;15.30;;;10.75;;
60314;SDS011;46159;42.550;21.904;2023-06-22T04:20:28;12.80;;;10.95;;
60314;SDS011;46159;42.550;21.904;2023-06-22T04:22:55;13.07;;;11.15;;
60314;SDS011;46159;42.550;21.904;2023-06-22T04:25:21;14.73;;;11.45;;
60314;SDS011;46159;42.550;21.904;2023-06-22T04:27:48;20.00;;;11.07;;
60314;SDS011;46159;42.550;21.904;2023-06-22T04:30:14;14.93;;;11.07;;
60314;SDS011;46159;42.550;21.904;2023-06-22T04:32:41;19.33;;;11.57;;
60314;SDS011;46159;42.550;21.904;2023-06-22T04:35:07;19.13;;;11.82;;
60314;SDS011;46159;42.550;21.904;2023-06-22T04:37:33;17.92;;;11.10;;
60314;SDS011;46159;42.550;21.904;2023-06-22T04:39:59;23.17;;;11.60;;
60314;SDS011;46159;42.550;21.904;2023-06-22T04:42:26;16.38;;;11.65;;
60314;SDS011;46159;42.550;21.904;2023-06-22T04:44:52;20.08;;;12.57;;
60314;SDS011;46159;42.550;21.904;2023-06-22T04:47:18;20.98;;;12.35;;
60314;SDS011;46159;42.550;21.904;2023-06-22T04:49:44;22.00;;;15.50;;
60314;SDS011;46159;42.550;21.904;2023-06-22T04:52:12;16.17;;;12.48;;
60314;SDS011;46159;42.550;21.904;2023-06-22T04:54:39;17.92;;;12.93;;
60314;SDS011;46159;42.550;21.904;2023-06-22T04:57:12;20.45;;;12.90;;
60314;SDS011;46159;42.550;21.904;2023-06-22T04:59:38;23.05;;;12.98;;
60314;SDS011;46159;42.550;21.904;2023-06-22T05:02:06;18.98;;;13.85;;
60314;SDS011;46159;42.550;21.904;2023-06-22T05:04:32;19.00;;;12.98;;
60314;SDS011;46159;42.550;21.904;2023-06-22T05:07:01;19.17;;;12.70;;
60314;SDS011;46159;42.550;21.904;2023-06-22T05:09:27;19.60;;;14.30;;
60314;SDS011;46159;42.550;21.904;2023-06-22T05:11:54;18.55;;;12.82;;
60314;SDS011;46159;42.550;21.904;2023-06-22T05:14:21;18.73;;;13.32;;
60314;SDS011;46159;42.550;21.904;2023-06-22T05:16:48;22.02;;;13.32;;
60314;SDS011;46159;42.550;21.904;2023-06-22T05:19:14;18.92;;;12.75;;
60314;SDS011;46159;42.550;21.904;2023-06-22T05:21:40;19.30;;;12.10;;
60314;SDS011;46159;42.550;21.904;2023-06-22T05:24:06;18.80;;;12.70;;
60314;SDS011;46159;42.550;21.904;2023-06-22T05:26:33;27.08;;;12.10;;
60314;SDS011;46159;42.550;21.904;2023-06-22T05:29:00;18.58;;;11.13;;
60314;SDS011;46159;42.550;21.904;2023-06-22T05:31:27;20.02;;;12.70;;
60314;SDS011;46159;42.550;21.904;2023-06-22T05:33:53;20.67;;;12.93;;
60314;SDS011;46159;42.550;21.904;2023-06-22T05:36:20;24.52;;;12.07;;
60314;SDS011;46159;42.550;21.904;2023-06-22T05:38:46;16.25;;;11.95;;
60314;SDS011;46159;42.550;21.904;2023-06-22T05:41:13;15.82;;;11.52;;
60314;SDS011;46159;42.550;21.904;2023-06-22T05:43:39;18.90;;;13.20;;
60314;SDS011;46159;42.550;21.904;2023-06-22T05:46:05;27.27;;;13.27;;
60314;SDS011;46159;42.550;21.904;2023-06-22T05:48:32;17.13;;;11.85;;
60314;SDS011;46159;42.550;21.904;2023-06-22T05:50:58;17.42;;;12.13;;
60314;SDS011;46159;42.550;21.904;2023-06-22T05:53:24;15.43;;;11.25;;
60314;SDS011;46159;42.550;21.904;2023-06-22T05:55:50;21.40;;;11.98;;
60314;SDS011;46159;42.550;21.904;2023-06-22T05:58:16;19.90;;;14.15;;
60314;SDS011;46159;42.550;21.904;2023-06-22T06:00:43;16.98;;;12.40;;
60314;SDS011;46159;42.550;21.904;2023-06-22T06:03:09;18.55;;;13.27;;
60314;SDS011;46159;42.550;21.904;2023-06-22T06:05:35;17.52;;;12.65;;
60314;SDS011;46159;42.550;21.904;2023-06-22T06:08:03;21.52;;;12.45;;
60314;SDS011;46159;42.550;21.904;2023-06-22T06:10:30;26.17;;;12.93;;
60314;SDS011;46159;42.550;21.904;2023-06-22T06:12:57;14.90;;;12.48;;
60314;SDS011;46159;42.550;21.904;2023-06-22T06:15:23;18.40;;;13.05;;
60314;SDS011;46159;42.550;21.904;2023-06-22T06:17:50;15.80;;;12.95;;
60314;SDS011;46159;42.550;21.904;2023-06-22T06:20:18;23.90;;;13.52;;
60314;SDS011;46159;42.550;21.904;2023-06-22T06:22:45;18.65;;;13.88;;
60314;SDS011;46159;42.550;21.904;2023-06-22T06:25:11;17.15;;;13.50;;
60314;SDS011;46159;42.550;21.904;2023-06-22T06:27:44;17.50;;;13.88;;
60314;SDS011;46159;42.550;21.904;2023-06-22T06:30:12;16.10;;;13.30;;
60314;SDS011;46159;42.550;21.904;2023-06-22T06:32:38;19.10;;;13.13;;
60314;SDS011;46159;42.550;21.904;2023-06-22T06:35:09;18.30;;;13.63;;
60314;SDS011;46159;42.550;21.904;2023-06-22T06:37:36;16.10;;;13.05;;
60314;SDS011;46159;42.550;21.904;2023-06-22T06:40:06;20.98;;;14.00;;
60314;SDS011;46159;42.550;21.904;2023-06-22T06:45:06;16.95;;;14.25;;
60314;SDS011;46159;42.550;21.904;2023-06-22T06:47:32;17.08;;;13.00;;
60314;SDS011;46159;42.550;21.904;2023-06-22T06:49:58;17.38;;;13.65;;
60314;SDS011;46159;42.550;21.904;2023-06-22T06:52:24;24.13;;;14.27;;
60314;SDS011;46159;42.550;21.904;2023-06-22T06:54:51;20.00;;;14.50;;
60314;SDS011;46159;42.550;21.904;2023-06-22T06:57:17;15.82;;;13.02;;
60314;SDS011;46159;42.550;21.904;2023-06-22T06:59:45;17.88;;;13.60;;
60314;SDS011;46159;42.550;21.904;2023-06-22T07:02:11;23.98;;;14.07;;
60314;SDS011;46159;42.550;21.904;2023-06-22T07:04:37;18.60;;;13.68;;
60314;SDS011;46159;42.550;21.904;2023-06-22T07:07:03;18.73;;;13.23;;
60314;SDS011;46159;42.550;21.904;2023-06-22T07:09:29;14.85;;;12.45;;
60314;SDS011;46159;42.550;21.904;2023-06-22T07:11:55;17.45;;;12.73;;
60314;SDS011;46159;42.550;21.904;2023-06-22T07:14:21;17.88;;;12.93;;
60314;SDS011;46159;42.550;21.904;2023-06-22T07:16:47;18.85;;;13.15;;
60314;SDS011;46159;42.550;21.904;2023-06-22T07:19:13;14.85;;;13.32;;
60314;SDS011;46159;42.550;21.904;2023-06-22T07:21:40;17.42;;;13.82;;
60314;SDS011;46159;42.550;21.904;2023-06-22T07:24:06;16.33;;;11.73;;
60314;SDS011;46159;42.550;21.904;2023-06-22T07:26:32;15.27;;;11.98;;
60314;SDS011;46159;42.550;21.904;2023-06-22T07:28:58;18.23;;;12.95;;
60314;SDS011;46159;42.550;21.904;2023-06-22T07:31:25;16.15;;;12.30;;
60314;SDS011;46159;42.550;21.904;2023-06-22T07:33:51;15.15;;;11.82;;
60314;SDS011;46159;42.550;21.904;2023-06-22T07:36:17;15.05;;;12.55;;
60314;SDS011;46159;42.550;21.904;2023-06-22T07:38:44;17.17;;;11.60;;
60314;SDS011;46159;42.550;21.904;2023-06-22T07:41:10;17.40;;;12.57;;
60314;SDS011;46159;42.550;21.904;2023-06-22T07:43:36;13.93;;;12.27;;
60314;SDS011;46159;42.550;21.904;2023-06-22T07:46:05;15.05;;;11.48;;
60314;SDS011;46159;42.550;21.904;2023-06-22T07:48:31;15.00;;;11.98;;
60314;SDS011;46159;42.550;21.904;2023-06-22T07:50:58;18.08;;;11.32;;
60314;SDS011;46159;42.550;21.904;2023-06-22T07:53:24;18.00;;;10.77;;
60314;SDS011;46159;42.550;21.904;2023-06-22T07:55:50;16.10;;;12.35;;
60314;SDS011;46159;42.550;21.904;2023-06-22T07:58:16;18.05;;;11.98;;
60314;SDS011;46159;42.550;21.904;2023-06-22T08:00:43;15.98;;;11.55;;
60314;SDS011;46159;42.550;21.904;2023-06-22T08:03:10;14.73;;;11.05;;
60314;SDS011;46159;42.550;21.904;2023-06-22T08:05:36;14.98;;;11.57;;
60314;SDS011;46159;42.550;21.904;2023-06-22T08:08:02;19.02;;;10.82;;
60314;SDS011;46159;42.550;21.904;2023-06-22T08:10:28;12.35;;;10.15;;
60314;SDS011;46159;42.550;21.904;2023-06-22T08:12:54;15.95;;;11.57;;
60314;SDS011;46159;42.550;21.904;2023-06-22T08:15:20;14.70;;;11.20;;
60314;SDS011;46159;42.550;21.904;2023-06-22T08:17:47;14.30;;;10.98;;
60314;SDS011;46159;42.550;21.904;2023-06-22T08:20:13;14.73;;;10.85;;
60314;SDS011;46159;42.550;21.904;2023-06-22T08:22:39;11.48;;;9.90;;
60314;SDS011;46159;42.550;21.904;2023-06-22T08:25:06;14.18;;;9.40;;
60314;SDS011;46159;42.550;21.904;2023-06-22T08:27:32;11.82;;;9.88;;
60314;SDS011;46159;42.550;21.904;2023-06-22T08:29:59;12.07;;;10.32;;
60314;SDS011;46159;42.550;21.904;2023-06-22T08:32:28;10.98;;;9.32;;
60314;SDS011;46159;42.550;21.904;2023-06-22T08:34:55;13.65;;;10.45;;
60314;SDS011;46159;42.550;21.904;2023-06-22T08:37:21;14.25;;;10.68;;
60314;SDS011;46159;42.550;21.904;2023-06-22T08:39:59;13.02;;;10.10;;
60314;SDS011;46159;42.550;21.904;2023-06-22T08:42:26;21.38;;;10.45;;
60314;SDS011;46159;42.550;21.904;2023-06-22T08:44:52;17.88;;;9.77;;
60314;SDS011;46159;42.550;21.904;2023-06-22T08:47:19;13.13;;;10.15;;
60314;SDS011;46159;42.550;21.904;2023-06-22T08:49:46;13.45;;;10.18;;
60314;SDS011;46159;42.550;21.904;2023-06-22T08:52:12;15.27;;;10.75;;
60314;SDS011;46159;42.550;21.904;2023-06-22T08:54:38;13.15;;;9.88;;
60314;SDS011;46159;42.550;21.904;2023-06-22T08:57:04;20.38;;;10.63;;
60314;SDS011;46159;42.550;21.904;2023-06-22T08:59:31;13.48;;;10.55;;
60314;SDS011;46159;42.550;21.904;2023-06-22T09:01:57;11.93;;;10.20;;
60314;SDS011;46159;42.550;21.904;2023-06-22T09:04:23;14.10;;;10.02;;
60314;SDS011;46159;42.550;21.904;2023-06-22T09:06:50;14.98;;;9.68;;
60314;SDS011;46159;42.550;21.904;2023-06-22T09:09:17;12.13;;;10.32;;
60314;SDS011;46159;42.550;21.904;2023-06-22T09:11:44;15.32;;;10.73;;
60314;SDS011;46159;42.550;21.904;2023-06-22T09:14:10;13.25;;;9.90;;
60314;SDS011;46159;42.550;21.904;2023-06-22T09:16:36;12.55;;;9.63;;
60314;SDS011;46159;42.550;21.904;2023-06-22T09:19:02;15.10;;;9.73;;
60314;SDS011;46159;42.550;21.904;2023-06-22T09:21:28;14.35;;;9.75;;
60314;SDS011;46159;42.550;21.904;2023-06-22T09:23:54;11.25;;;8.98;;
60314;SDS011;46159;42.550;21.904;2023-06-22T09:26:21;11.73;;;9.18;;
60314;SDS011;46159;42.550;21.904;2023-06-22T09:28:49;15.73;;;9.07;;
60314;SDS011;46159;42.550;21.904;2023-06-22T09:31:15;12.18;;;9.15;;
60314;SDS011;46159;42.550;21.904;2023-06-22T09:33:42;14.48;;;9.52;;
60314;SDS011;46159;42.550;21.904;2023-06-22T09:36:08;13.90;;;9.13;;
60314;SDS011;46159;42.550;21.904;2023-06-22T09:38:37;10.60;;;9.10;;
60314;SDS011;46159;42.550;21.904;2023-06-22T09:41:04;14.70;;;9.02;;
60314;SDS011;46159;42.550;21.904;2023-06-22T09:43:31;10.18;;;8.13;;
60314;SDS011;46159;42.550;21.904;2023-06-22T09:46:00;10.77;;;8.50;;
60314;SDS011;46159;42.550;21.904;2023-06-22T09:48:27;10.98;;;8.45;;
60314;SDS011;46159;42.550;21.904;2023-06-22T09:50:54;16.48;;;8.70;;
60314;SDS011;46159;42.550;21.904;2023-06-22T09:53:20;11.57;;;8.23;;
60314;SDS011;46159;42.550;21.904;2023-06-22T09:55:46;12.18;;;8.13;;
60314;SDS011;46159;42.550;21.904;2023-06-22T09:58:12;12.52;;;8.43;;
60314;SDS011;46159;42.550;21.904;2023-06-22T10:00:39;11.90;;;8.23;;
60314;SDS011;46159;42.550;21.904;2023-06-22T10:03:06;13.15;;;8.95;;
60314;SDS011;46159;42.550;21.904;2023-06-22T10:05:32;13.77;;;9.20;;
60314;SDS011;46159;42.550;21.904;2023-06-22T10:07:58;13.88;;;9.05;;
60314;SDS011;46159;42.550;21.904;2023-06-22T10:10:24;14.75;;;8.43;;
60314;SDS011;46159;42.550;21.904;2023-06-22T10:12:55;16.75;;;8.95;;
60314;SDS011;46159;42.550;21.904;2023-06-22T10:15:22;12.57;;;8.35;;
60314;SDS011;46159;42.550;21.904;2023-06-22T10:17:48;12.65;;;8.60;;
60314;SDS011;46159;42.550;21.904;2023-06-22T10:20:15;11.60;;;9.25;;
60314;SDS011;46159;42.550;21.904;2023-06-22T10:22:44;10.13;;;8.55;;
60314;SDS011;46159;42.550;21.904;2023-06-22T10:25:11;12.02;;;8.80;;
60314;SDS011;46159;42.550;21.904;2023-06-22T10:27:39;11.73;;;8.45;;
60314;SDS011;46159;42.550;21.904;2023-06-22T10:30:08;12.07;;;9.13;;
60314;SDS011;46159;42.550;21.904;2023-06-22T10:32:34;12.70;;;8.05;;
60314;SDS011;46159;42.550;21.904;2023-06-22T10:35:01;11.60;;;8.60;;
60314;SDS011;46159;42.550;21.904;2023-06-22T10:37:28;12.55;;;8.70;;
60314;SDS011;46159;42.550;21.904;2023-06-22T10:39:54;12.60;;;8.68;;
60314;SDS011;46159;42.550;21.904;2023-06-22T10:42:20;11.70;;;8.40;;
60314;SDS011;46159;42.550;21.904;2023-06-22T10:44:46;11.88;;;8.05;;
60314;SDS011;46159;42.550;21.904;2023-06-22T10:47:12;12.77;;;8.27;;
60314;SDS011;46159;42.550;21.904;2023-06-22T10:49:39;10.85;;;7.90;;
60314;SDS011;46159;42.550;21.904;2023-06-22T10:52:06;10.23;;;8.45;;
60314;SDS011;46159;42.550;21.904;2023-06-22T10:54:32;14.82;;;8.82;;
60314;SDS011;46159;42.550;21.904;2023-06-22T10:56:59;12.43;;;8.60;;
60314;SDS011;46159;42.550;21.904;2023-06-22T10:59:25;11.63;;;8.30;;
60314;SDS011;46159;42.550;21.904;2023-06-22T11:01:52;9.70;;;8.25;;
60314;SDS011;46159;42.550;21.904;2023-06-22T11:04:18;10.13;;;8.52;;
60314;SDS011;46159;42.550;21.904;2023-06-22T11:06:44;11.23;;;8.52;;
60314;SDS011;46159;42.550;21.904;2023-06-22T11:09:11;11.75;;;8.93;;
60314;SDS011;46159;42.550;21.904;2023-06-22T11:11:37;10.82;;;8.90;;
60314;SDS011;46159;42.550;21.904;2023-06-22T11:14:03;11.02;;;8.15;;
60314;SDS011;46159;42.550;21.904;2023-06-22T11:16:29;11.88;;;8.63;;
60314;SDS011;46159;42.550;21.904;2023-06-22T11:18:55;10.85;;;8.43;;
60314;SDS011;46159;42.550;21.904;2023-06-22T11:21:21;12.70;;;8.63;;
60314;SDS011;46159;42.550;21.904;2023-06-22T11:23:47;11.32;;;8.20;;
60314;SDS011;46159;42.550;21.904;2023-06-22T11:26:13;11.95;;;8.32;;
60314;SDS011;46159;42.550;21.904;2023-06-22T11:28:39;15.85;;;8.88;;
60314;SDS011;46159;42.550;21.904;2023-06-22T11:31:05;15.27;;;8.82;;
60314;SDS011;46159;42.550;21.904;2023-06-22T11:33:32;10.38;;;8.32;;
60314;SDS011;46159;42.550;21.904;2023-06-22T11:35:58;10.38;;;8.10;;
60314;SDS011;46159;42.550;21.904;2023-06-22T11:38:25;14.50;;;8.82;;
60314;SDS011;46159;42.550;21.904;2023-06-22T11:40:51;15.35;;;9.00;;
60314;SDS011;46159;42.550;21.904;2023-06-22T11:43:17;15.70;;;9.00;;
60314;SDS011;46159;42.550;21.904;2023-06-22T11:45:43;12.40;;;8.85;;
60314;SDS011;46159;42.550;21.904;2023-06-22T11:48:09;10.32;;;8.25;;
60314;SDS011;46159;42.550;21.904;2023-06-22T11:50:35;10.20;;;9.00;;
60314;SDS011;46159;42.550;21.904;2023-06-22T11:53:02;12.23;;;8.48;;
60314;SDS011;46159;42.550;21.904;2023-06-22T11:55:28;11.38;;;9.00;;
60314;SDS011;46159;42.550;21.904;2023-06-22T11:57:55;12.35;;;8.50;;
60314;SDS011;46159;42.550;21.904;2023-06-22T12:00:23;13.50;;;8.60;;
60314;SDS011;46159;42.550;21.904;2023-06-22T12:02:50;12.63;;;8.85;;
60314;SDS011;46159;42.550;21.904;2023-06-22T12:05:19;13.50;;;8.27;;
60314;SDS011;46159;42.550;21.904;2023-06-22T12:07:46;12.27;;;8.52;;
60314;SDS011;46159;42.550;21.904;2023-06-22T12:10:12;15.40;;;8.45;;
60314;SDS011;46159;42.550;21.904;2023-06-22T12:12:38;9.63;;;7.32;;
60314;SDS011;46159;42.550;21.904;2023-06-22T12:15:04;16.67;;;10.40;;
60314;SDS011;46159;42.550;21.904;2023-06-22T12:17:31;9.80;;;7.97;;
60314;SDS011;46159;42.550;21.904;2023-06-22T12:19:58;8.95;;;7.22;;
60314;SDS011;46159;42.550;21.904;2023-06-22T12:22:24;11.07;;;7.78;;
60314;SDS011;46159;42.550;21.904;2023-06-22T12:24:50;8.05;;;6.68;;
60314;SDS011;46159;42.550;21.904;2023-06-22T12:27:16;9.25;;;7.25;;
60314;SDS011;46159;42.550;21.904;2023-06-22T12:29:46;12.30;;;8.27;;
60314;SDS011;46159;42.550;21.904;2023-06-22T12:32:12;9.80;;;7.40;;
60314;SDS011;46159;42.550;21.904;2023-06-22T12:34:39;9.15;;;5.78;;
60314;SDS011;46159;42.550;21.904;2023-06-22T12:37:05;8.30;;;5.80;;
60314;SDS011;46159;42.550;21.904;2023-06-22T12:39:31;8.77;;;5.63;;
60314;SDS011;46159;42.550;21.904;2023-06-22T12:41:57;8.55;;;6.78;;
60314;SDS011;46159;42.550;21.904;2023-06-22T12:44:24;8.52;;;6.45;;
60314;SDS011;46159;42.550;21.904;2023-06-22T12:46:50;9.70;;;7.32;;
60314;SDS011;46159;42.550;21.904;2023-06-22T12:49:16;9.85;;;6.97;;
60314;SDS011;46159;42.550;21.904;2023-06-22T12:51:42;9.60;;;6.25;;
60314;SDS011;46159;42.550;21.904;2023-06-22T12:54:09;7.97;;;4.03;;
60314;SDS011;46159;42.550;21.904;2023-06-22T12:56:35;9.40;;;4.95;;
60314;SDS011;46159;42.550;21.904;2023-06-22T12:59:01;9.98;;;5.60;;
60314;SDS011;46159;42.550;21.904;2023-06-22T13:01:30;7.88;;;5.03;;
60314;SDS011;46159;42.550;21.904;2023-06-22T13:03:57;10.10;;;5.75;;
60314;SDS011;46159;42.550;21.904;2023-06-22T13:06:23;10.00;;;4.60;;
60314;SDS011;46159;42.550;21.904;2023-06-22T13:08:53;6.40;;;3.92;;
60314;SDS011;46159;42.550;21.904;2023-06-22T13:11:19;7.45;;;4.25;;
60314;SDS011;46159;42.550;21.904;2023-06-22T13:13:46;6.28;;;3.13;;
60314;SDS011;46159;42.550;21.904;2023-06-22T13:16:12;6.82;;;3.08;;
60314;SDS011;46159;42.550;21.904;2023-06-22T13:18:38;8.65;;;4.53;;
60314;SDS011;46159;42.550;21.904;2023-06-22T13:21:04;6.45;;;3.85;;
60314;SDS011;46159;42.550;21.904;2023-06-22T13:23:30;6.45;;;3.45;;
60314;SDS011;46159;42.550;21.904;2023-06-22T13:25:57;10.52;;;3.50;;
60314;SDS011;46159;42.550;21.904;2023-06-22T13:28:23;10.00;;;3.70;;
60314;SDS011;46159;42.550;21.904;2023-06-22T13:30:49;5.63;;;2.72;;
60314;SDS011;46159;42.550;21.904;2023-06-22T13:33:16;9.95;;;3.80;;
60314;SDS011;46159;42.550;21.904;2023-06-22T13:35:42;9.10;;;3.55;;
60314;SDS011;46159;42.550;21.904;2023-06-22T13:38:08;7.32;;;3.45;;
60314;SDS011;46159;42.550;21.904;2023-06-22T13:40:35;7.65;;;3.67;;
60314;SDS011;46159;42.550;21.904;2023-06-22T13:43:02;6.13;;;3.50;;
60314;SDS011;46159;42.550;21.904;2023-06-22T13:45:28;7.13;;;3.17;;
60314;SDS011;46159;42.550;21.904;2023-06-22T13:47:55;6.93;;;3.45;;
60314;SDS011;46159;42.550;21.904;2023-06-22T13:50:21;7.55;;;4.32;;
60314;SDS011;46159;42.550;21.904;2023-06-22T13:52:47;8.15;;;4.22;;
60314;SDS011;46159;42.550;21.904;2023-06-22T13:55:13;7.78;;;3.53;;
60314;SDS011;46159;42.550;21.904;2023-06-22T13:57:40;7.80;;;3.65;;
60314;SDS011;46159;42.550;21.904;2023-06-22T14:00:06;7.20;;;3.47;;
60314;SDS011;46159;42.550;21.904;2023-06-22T14:02:33;7.70;;;3.65;;
60314;SDS011;46159;42.550;21.904;2023-06-22T14:04:59;11.90;;;4.50;;
60314;SDS011;46159;42.550;21.904;2023-06-22T14:07:27;10.63;;;4.25;;
60314;SDS011;46159;42.550;21.904;2023-06-22T14:09:53;7.75;;;4.30;;
60314;SDS011;46159;42.550;21.904;2023-06-22T14:12:19;6.85;;;4.07;;
60314;SDS011;46159;42.550;21.904;2023-06-22T14:14:45;8.27;;;3.60;;
60314;SDS011;46159;42.550;21.904;2023-06-22T14:17:11;7.80;;;4.35;;
60314;SDS011;46159;42.550;21.904;2023-06-22T14:19:37;8.23;;;4.38;;
60314;SDS011;46159;42.550;21.904;2023-06-22T14:22:03;6.90;;;3.95;;
60314;SDS011;46159;42.550;21.904;2023-06-22T14:24:30;7.68;;;4.22;;
60314;SDS011;46159;42.550;21.904;2023-06-22T14:26:56;6.72;;;4.15;;